createdAt,value
2019-03-05T04:01:15.916Z,96.50
2019-03-05T04:03:44.530Z,96.60
2019-03-05T04:06:13.110Z,96.80
2019-03-05T04:08:42.056Z,96.80
2019-03-05T04:11:10.635Z,96.90
2019-03-05T04:13:39.215Z,97.10
2019-03-05T04:16:07.803Z,97.10
2019-03-05T04:18:36.370Z,97.30
2019-03-05T04:21:04.934Z,97.30
2019-03-05T04:23:33.549Z,97.40
2019-03-05T04:26:02.122Z,97.40
2019-03-05T04:28:30.730Z,97.50
2019-03-05T04:30:59.576Z,97.70
2019-03-05T04:33:28.143Z,97.70
2019-03-05T04:35:56.785Z,97.80
2019-03-05T04:38:25.361Z,97.80
2019-03-05T04:40:53.953Z,97.90
2019-03-05T04:43:22.526Z,97.90
2019-03-05T04:46:16.379Z,97.80
2019-03-05T04:48:46.617Z,97.90
2019-03-05T04:51:21.829Z,97.90
2019-03-05T04:53:50.397Z,97.90
2019-03-05T04:56:18.969Z,97.90
2019-03-05T04:58:47.914Z,97.90
2019-03-05T05:01:16.757Z,97.90
2019-03-05T05:03:45.393Z,97.90
2019-03-05T05:06:13.998Z,97.90
2019-03-05T05:08:42.561Z,97.80
2019-03-05T05:11:11.154Z,97.90
2019-03-05T06:22:29.555Z,97.60
2019-03-05T06:24:58.189Z,97.70
2019-03-05T06:27:26.816Z,97.50
2019-03-05T06:29:55.455Z,97.40
2019-03-05T06:32:24.084Z,97.30
2019-03-05T06:34:52.731Z,97.10
2019-03-05T06:37:21.647Z,97.00
2019-03-05T06:39:50.285Z,96.80
2019-03-05T06:42:18.935Z,96.40
2019-03-05T06:44:47.628Z,96.10
2019-03-05T06:47:16.349Z,95.80
2019-03-05T06:49:44.996Z,95.70
2019-03-05T06:52:13.626Z,95.50
2019-03-05T06:54:42.278Z,95.40
2019-03-05T06:57:10.977Z,95.30
2019-03-05T06:59:39.716Z,94.80
2019-03-05T07:02:08.393Z,94.50
2019-03-05T07:04:37.070Z,93.80
2019-03-05T07:07:05.737Z,93.30
2019-03-05T07:10:05.261Z,92.80
2019-03-05T07:13:00.473Z,92.40
2019-03-05T07:15:37.939Z,91.70
2019-03-05T07:18:13.972Z,91.30
2019-03-05T07:21:45.031Z,90.90
2019-03-05T07:24:46.031Z,90.20
2019-03-05T07:27:23.177Z,90.80
2019-03-05T07:29:52.101Z,90.90
2019-03-05T07:32:20.796Z,90.70
2019-03-05T07:34:50.167Z,90.40
2019-03-05T07:37:18.932Z,90.50
2019-03-05T07:39:47.624Z,90.60
2019-03-05T07:42:16.292Z,90.30
2019-03-05T07:44:44.927Z,89.40
2019-03-05T07:47:13.551Z,84.70
2019-03-05T07:49:44.056Z,79.40
2019-03-05T07:52:12.577Z,74.40
2019-03-05T07:54:41.248Z,67.60
2019-03-05T07:57:09.888Z,62.30
2019-03-05T07:59:38.515Z,59.70
2019-03-05T08:02:07.171Z,59.30
2019-03-05T08:04:35.808Z,58.70
2019-03-05T08:07:04.643Z,58.30
2019-03-05T08:09:37.640Z,55.80
2019-03-05T08:12:32.957Z,54.30
2019-03-05T08:15:46.800Z,53.30
2019-03-05T08:18:15.461Z,49.90
2019-03-05T08:20:44.166Z,49.10
2019-03-05T08:23:12.796Z,48.10
2019-03-05T08:25:41.513Z,48.00
2019-03-05T08:28:10.237Z,47.50
2019-03-05T08:30:38.901Z,45.90
2019-03-05T08:33:07.608Z,45.40
2019-03-05T08:35:36.248Z,44.90
2019-03-05T08:38:04.971Z,45.00
2019-03-05T08:40:33.965Z,45.80
2019-03-05T08:43:02.696Z,44.80
2019-03-05T08:45:31.370Z,42.80
2019-03-05T08:48:00.012Z,44.10
2019-03-05T08:50:28.675Z,46.20
2019-03-05T08:52:57.309Z,48.20
2019-03-05T08:55:25.962Z,49.80
2019-03-05T08:57:54.595Z,51.10
2019-03-05T09:00:23.416Z,50.90
2019-03-05T09:02:52.332Z,49.20
2019-03-05T09:05:20.958Z,48.10
2019-03-05T09:07:49.950Z,47.70
2019-03-05T09:10:19.680Z,48.30
2019-03-05T09:12:48.358Z,48.00
2019-03-05T09:15:17.399Z,45.50
2019-03-05T09:17:46.035Z,47.30
2019-03-05T09:20:15.856Z,49.70
2019-03-05T09:22:44.560Z,51.50
2019-03-05T09:25:13.968Z,49.80
2019-03-05T09:27:42.999Z,47.50
2019-03-05T09:30:15.080Z,47.90
2019-03-05T09:32:43.731Z,48.00
2019-03-05T09:35:12.800Z,50.50
2019-03-05T09:37:41.492Z,50.00
2019-03-05T09:40:15.987Z,52.10
2019-03-05T09:42:44.716Z,55.20
2019-03-05T09:45:14.944Z,56.20
2019-03-05T09:47:43.572Z,57.70
2019-03-05T09:50:13.856Z,57.00
2019-03-05T09:52:51.219Z,56.40
2019-03-05T09:55:15.352Z,57.00
2019-03-05T09:57:44.015Z,56.30
2019-03-05T10:00:15.477Z,56.20
2019-03-05T10:02:44.130Z,56.60
2019-03-05T10:05:13.429Z,55.60
2019-03-05T10:07:42.068Z,56.20
2019-03-05T10:10:12.812Z,57.00
2019-03-05T10:12:41.441Z,54.60
2019-03-05T10:15:13.140Z,54.20
2019-03-05T10:17:41.781Z,54.30
2019-03-05T10:20:13.368Z,52.00
2019-03-05T10:22:42.032Z,49.00
2019-03-05T10:25:12.934Z,49.30
2019-03-05T10:27:41.703Z,48.60
2019-03-05T10:30:25.098Z,49.70
2019-03-05T10:32:52.871Z,49.50
2019-03-05T10:35:22.918Z,50.70
2019-03-05T10:37:51.537Z,53.30
2019-03-05T10:40:20.845Z,52.40
2019-03-05T10:42:49.496Z,52.60
2019-03-05T10:45:18.356Z,50.60
2019-03-05T10:47:47.665Z,51.10
2019-03-05T10:50:18.482Z,52.20
2019-03-05T10:52:47.144Z,54.40
2019-03-05T10:55:25.979Z,53.20
2019-03-05T10:57:46.269Z,50.80
2019-03-05T11:00:17.352Z,48.30
2019-03-05T11:02:45.979Z,46.90
2019-03-05T11:05:14.616Z,44.30
2019-03-05T11:07:43.600Z,44.70
2019-03-05T11:10:12.353Z,46.90
2019-03-05T11:12:41.044Z,48.90
2019-03-05T11:15:14.848Z,51.00
2019-03-05T11:17:43.784Z,51.00
2019-03-05T11:20:12.440Z,50.70
2019-03-05T11:22:41.216Z,50.30
2019-03-05T11:25:10.652Z,50.90
2019-03-05T11:27:39.276Z,51.00
2019-03-05T11:30:11.508Z,50.40
2019-03-05T11:32:40.491Z,50.80
2019-03-05T11:35:09.586Z,51.00
2019-03-05T11:37:38.571Z,52.40
2019-03-05T11:40:09.303Z,52.90
2019-03-05T11:42:37.940Z,52.10
2019-03-05T11:45:11.631Z,51.90
2019-03-05T11:47:39.367Z,52.50
2019-03-05T11:50:08.663Z,53.10
2019-03-05T11:52:37.328Z,50.10
2019-03-05T11:55:06.463Z,51.30
2019-03-05T11:57:35.256Z,51.10
2019-03-05T12:00:04.094Z,50.70
2019-03-05T12:02:32.749Z,49.80
2019-03-05T12:05:01.380Z,50.30
2019-03-05T12:07:30.045Z,49.20
2019-03-05T12:09:58.707Z,50.40
2019-03-05T12:12:27.411Z,49.40
2019-03-05T12:14:56.064Z,49.10
2019-03-05T12:17:24.704Z,49.70
2019-03-05T12:19:53.364Z,47.30
2019-03-05T12:22:22.025Z,46.80
2019-03-05T12:24:50.701Z,48.40
2019-03-05T12:27:19.368Z,50.00
2019-03-05T12:29:48.016Z,49.60
2019-03-05T12:32:16.689Z,50.40
2019-03-05T12:34:45.319Z,50.60
2019-03-05T12:37:13.954Z,50.70
2019-03-05T12:39:42.917Z,50.80
2019-03-05T12:42:11.557Z,50.80
2019-03-05T12:44:40.212Z,50.30
2019-03-05T12:47:08.846Z,50.70
2019-03-05T12:49:37.468Z,49.80
2019-03-05T12:52:06.128Z,50.40
2019-03-05T12:54:34.789Z,51.10
2019-03-05T12:57:03.463Z,51.40
2019-03-05T12:59:32.104Z,51.30
2019-03-05T13:02:00.766Z,52.10
2019-03-05T13:04:29.496Z,53.10
2019-03-05T13:06:58.168Z,53.20
2019-03-05T13:09:26.881Z,52.90
2019-03-05T13:11:55.508Z,52.90
2019-03-05T13:14:24.135Z,53.50
2019-03-05T13:16:52.797Z,54.90
2019-03-05T13:19:21.497Z,55.00
2019-03-05T13:21:50.309Z,55.70
2019-03-05T13:24:19.074Z,56.30
2019-03-05T13:26:47.722Z,57.30
2019-03-05T13:29:19.331Z,58.50
2019-03-05T13:31:47.108Z,59.20
2019-03-05T13:34:17.845Z,60.50
2019-03-05T13:36:50.631Z,62.20
2019-03-05T13:39:22.444Z,64.30
2019-03-05T13:41:50.399Z,66.10
2019-03-05T13:44:32.268Z,67.20
2019-03-05T13:47:00.995Z,69.10
2019-03-05T13:49:58.716Z,71.00
2019-03-05T13:53:01.998Z,71.30
2019-03-05T13:56:03.989Z,72.30
2019-03-05T13:58:54.540Z,73.60
2019-03-05T14:01:23.188Z,73.90
2019-03-05T14:04:05.328Z,75.20
2019-03-05T14:07:11.205Z,77.30
2019-03-05T14:09:38.983Z,78.10
2019-03-05T14:12:07.646Z,79.80
2019-03-05T14:14:36.256Z,82.30
2019-03-05T14:17:17.447Z,83.80
2019-03-05T14:19:46.099Z,86.10
2019-03-05T14:22:16.844Z,87.90
2019-03-05T14:24:45.915Z,89.30
2019-03-05T14:27:15.138Z,90.40
2019-03-05T14:29:44.141Z,90.70
2019-03-05T14:32:14.219Z,91.50
2019-03-05T14:34:44.669Z,91.70
2019-03-05T14:37:14.005Z,92.20
2019-03-05T14:39:43.623Z,92.50
2019-03-05T14:42:13.572Z,92.80
2019-03-05T14:44:43.950Z,93.00
2019-03-05T14:47:15.077Z,92.60
2019-03-05T14:49:44.968Z,92.60
2019-03-05T14:52:13.780Z,93.10
2019-03-05T14:54:42.451Z,92.60
2019-03-05T14:57:11.490Z,93.00
2019-03-05T14:59:40.275Z,93.10
2019-03-05T15:02:09.133Z,92.80
2019-03-05T15:04:37.896Z,93.20
2019-03-05T15:07:06.578Z,93.30
2019-03-05T15:09:35.274Z,93.70
2019-03-05T15:12:04.079Z,93.90
2019-03-05T15:14:32.797Z,94.00
2019-03-05T15:17:01.479Z,94.20
2019-03-05T15:19:30.156Z,94.50
2019-03-05T15:21:58.893Z,94.70
2019-03-05T15:24:27.588Z,95.10
2019-03-05T15:26:56.312Z,95.40
2019-03-05T15:29:25.098Z,95.20
2019-03-05T15:31:53.827Z,95.60
2019-03-05T15:34:22.767Z,95.80
2019-03-05T15:36:52.152Z,95.90
2019-03-05T15:39:21.039Z,95.80
2019-03-05T15:41:49.810Z,96.10
2019-03-05T15:44:18.466Z,96.40
2019-03-05T15:46:47.116Z,96.40
2019-03-05T15:49:15.816Z,96.60
2019-03-05T15:51:44.490Z,96.40
2019-03-05T15:54:13.516Z,96.70
2019-03-05T15:56:42.144Z,96.80
2019-03-05T15:59:10.892Z,97.10
2019-03-05T16:01:39.604Z,97.10
2019-03-05T16:04:08.247Z,97.20
2019-03-05T16:06:36.931Z,97.40
2019-03-05T16:09:12.661Z,97.30
2019-03-05T16:11:41.392Z,96.90
2019-03-05T16:14:10.028Z,96.80
2019-03-05T16:16:38.737Z,97.00
2019-03-05T16:19:07.394Z,97.50
2019-03-05T16:21:37.221Z,97.10
2019-03-05T16:24:06.868Z,97.10
2019-03-05T16:26:35.904Z,97.20
2019-03-05T16:29:05.812Z,97.20
2019-03-05T16:31:56.301Z,97.40
2019-03-05T16:34:47.119Z,97.50
2019-03-05T16:37:31.468Z,97.60
2019-03-05T16:40:22.254Z,97.60
2019-03-05T16:43:02.106Z,97.70
2019-03-05T16:45:49.804Z,98.00
2019-03-05T16:48:37.544Z,97.80
2019-03-05T16:51:26.570Z,97.90
2019-03-05T16:54:24.039Z,97.80
2019-03-05T16:57:04.346Z,97.80
2019-03-05T16:59:53.216Z,97.70
2019-03-05T17:02:46.764Z,98.00
2019-03-05T17:05:41.160Z,98.00
2019-03-05T17:08:49.668Z,97.80
2019-03-05T17:11:45.304Z,97.50
2019-03-05T17:14:23.149Z,97.40
2019-03-05T17:16:51.833Z,97.70
2019-03-05T17:19:20.465Z,97.80
2019-03-05T17:21:49.206Z,97.90
2019-03-05T17:24:18.719Z,98.00
2019-03-05T17:26:47.383Z,97.90
2019-03-05T17:29:16.080Z,97.80
2019-03-05T17:31:44.868Z,97.90
2019-03-05T17:34:13.488Z,97.90
2019-03-05T17:36:42.144Z,97.90
2019-03-05T17:39:17.547Z,98.10
2019-03-05T17:41:46.207Z,98.20
2019-03-05T17:44:14.844Z,98.20
2019-03-05T17:46:44.839Z,98.30
2019-03-05T17:49:14.747Z,98.30
2019-03-05T17:51:43.467Z,98.40
2019-03-05T17:54:12.694Z,98.40
2019-03-05T17:56:41.420Z,98.40
2019-03-05T17:59:10.358Z,98.20
2019-03-05T18:01:39.040Z,98.40
2019-03-05T18:04:07.732Z,98.60
2019-03-05T18:06:36.394Z,98.60
2019-03-05T18:09:06.037Z,98.60
2019-03-05T18:11:34.678Z,98.50
2019-03-05T18:14:03.332Z,98.60
2019-03-05T18:16:32.028Z,98.50
2019-03-05T18:19:00.802Z,98.60
2019-03-05T18:21:29.443Z,98.60
2019-03-05T18:23:58.256Z,98.70
2019-03-05T18:26:26.981Z,98.60
2019-03-05T18:28:55.605Z,98.60
2019-03-05T18:31:24.274Z,98.60
2019-03-05T18:33:52.924Z,98.60
2019-03-05T18:36:21.847Z,98.60
2019-03-05T18:38:50.499Z,99.10
2019-03-05T18:41:19.124Z,98.80
2019-03-05T18:43:47.767Z,98.80
2019-03-05T18:46:16.400Z,98.80
2019-03-05T18:48:45.304Z,98.80
2019-03-05T18:51:13.963Z,98.80
2019-03-05T18:53:42.595Z,98.80
2019-03-05T18:56:11.246Z,98.90
2019-03-05T18:58:39.871Z,98.90
2019-03-05T19:01:09.756Z,98.90
2019-03-05T19:03:38.552Z,98.90
2019-03-05T19:06:07.181Z,98.90
2019-03-05T19:08:35.811Z,98.80
2019-03-05T19:11:04.479Z,98.70
2019-03-05T19:13:33.279Z,98.80
2019-03-05T19:16:02.141Z,98.70
2019-03-05T19:18:30.832Z,98.60
2019-03-05T19:20:59.456Z,98.50
2019-03-05T19:23:28.130Z,98.70
2019-03-05T19:25:57.493Z,98.70
2019-03-05T19:28:26.176Z,98.70
2019-03-05T19:30:54.811Z,98.60
2019-03-05T19:33:23.553Z,98.60
2019-03-05T19:35:52.175Z,98.60
2019-03-05T19:38:21.076Z,98.50
2019-03-05T19:40:49.724Z,98.60
2019-03-05T19:43:18.380Z,98.60
2019-03-05T19:45:47.064Z,98.40
2019-03-05T19:48:15.937Z,98.40
2019-03-05T19:50:45.264Z,98.30
2019-03-05T19:53:13.995Z,98.40
2019-03-05T19:55:42.628Z,98.40
2019-03-05T19:58:12.413Z,98.60
2019-03-05T20:01:00.487Z,98.30
2019-03-05T20:03:29.500Z,98.40
2019-03-05T20:05:58.474Z,98.40
2019-03-05T20:08:27.168Z,98.40
2019-03-05T20:10:55.838Z,98.30
2019-03-05T20:13:24.838Z,98.10
2019-03-05T20:15:53.494Z,98.20
2019-03-05T20:18:22.123Z,98.10
2019-03-05T20:20:50.785Z,98.10
2019-03-05T20:23:19.855Z,98.10
2019-03-05T20:25:48.492Z,98.00
2019-03-05T20:28:17.161Z,98.10
2019-03-05T20:30:45.884Z,98.10
2019-03-05T20:33:14.520Z,98.40
2019-03-05T20:35:43.180Z,98.30
2019-03-05T20:38:11.808Z,98.00
2019-03-05T20:40:40.527Z,98.10
2019-03-05T20:43:09.235Z,98.10
2019-03-05T20:45:37.867Z,98.00
2019-03-05T20:48:06.529Z,98.00
2019-03-05T20:50:35.476Z,98.10
2019-03-05T20:53:04.131Z,98.00
2019-03-05T20:55:32.798Z,98.10
2019-03-05T20:58:01.432Z,98.10
2019-03-05T21:00:30.983Z,98.10
2019-03-05T21:03:01.385Z,98.30
2019-03-05T21:05:32.437Z,98.40
2019-03-05T21:08:01.140Z,98.10
2019-03-05T21:10:29.768Z,98.50
2019-03-05T21:12:58.479Z,98.60
2019-03-05T21:15:27.573Z,98.60
2019-03-05T21:17:56.215Z,99.10
2019-03-05T21:20:24.830Z,98.60
2019-03-05T21:22:53.547Z,98.70
2019-03-05T21:25:22.213Z,98.80
2019-03-05T21:27:50.836Z,98.80
2019-03-05T21:30:19.679Z,98.60
2019-03-05T21:32:48.304Z,98.50
2019-03-05T21:35:16.932Z,98.60
2019-03-05T21:37:45.699Z,98.70
2019-03-05T21:40:17.051Z,98.80
2019-03-05T21:42:45.767Z,98.70
2019-03-05T21:45:23.589Z,98.60
2019-03-05T21:47:52.304Z,98.60
2019-03-05T21:50:23.035Z,98.70
2019-03-05T21:52:51.303Z,98.50
2019-03-05T21:55:19.928Z,98.60
2019-03-05T21:57:48.583Z,98.70
2019-03-05T22:00:19.749Z,98.80
2019-03-05T22:02:48.371Z,98.60
2019-03-05T22:05:17.016Z,98.60
2019-03-05T22:07:45.708Z,98.70
2019-03-05T22:10:16.155Z,98.50
2019-03-05T22:12:44.782Z,98.60
2019-03-05T22:15:15.256Z,98.50
2019-03-05T22:17:43.904Z,98.70
2019-03-05T22:20:13.092Z,98.40
2019-03-05T22:22:41.776Z,98.40
2019-03-05T22:25:11.631Z,98.40
2019-03-05T22:27:40.256Z,98.30
2019-03-05T22:30:18.339Z,98.20
2019-03-05T22:32:47.001Z,98.10
2019-03-05T22:35:16.637Z,98.20
2019-03-05T22:37:45.272Z,98.30
2019-03-05T22:40:14.208Z,98.30
2019-03-05T22:42:42.913Z,98.20
2019-03-05T22:45:14.319Z,98.20
2019-03-05T22:47:42.967Z,98.30
2019-03-05T22:50:11.600Z,98.30
2019-03-05T22:52:40.503Z,98.30
2019-03-05T22:55:09.276Z,98.30
2019-03-05T22:57:37.928Z,98.20
2019-03-05T23:00:10.508Z,98.30
